Weather History for Pagosa Springs, CO

Change the Weather History Date:

Monday, September 30, 2013

  Actual Average (KDRO) Record (KDRO)
Temperature  
Mean Temperature 52 °F 53 °F  
Max Temperature 69 °F 70 °F 86 °F (1980)
Min Temperature 34 °F 37 °F 24 °F (1985)
Degree Days  
Heating Degree Days 14 12  
Month to date heating degree days 194  
Since 1 July heating degree days 224  
Cooling Degree Days 0 0  
Month to date cooling degree days 6  
Year to date cooling degree days 243  
Growing Degree Days 2 (Base 50)    
Moisture  
Dew Point 28 °F    
Average Humidity 47    
Maximum Humidity 82    
Minimum Humidity 18    
Precipitation  
Precipitation 0.00 in 0.05 in 1.77 in (1971)
Month to date precipitation 1.91  
Year to date precipitation 11.88  
Sea Level Pressure  
Sea Level Pressure 30.21 in    
Wind  
Wind Speed 2 mph (SW)    
Max Wind Speed 10 mph    
Max Gust Speed -    
Visibility 10 miles    
Events Thunderstorm    
T = Trace of Precipitation, MM = Missing Value Source: NWS Daily Summary

Daily Weather History Graph

Daily Weather History Graph

Search for Another Location

Airport:

Trip Planner

Search our weather history database for the weather conditions in past years. The results will help you decide how hot, cold, wet, or windy it might be!

Date:

Astronomy

Sep. 30, 2013 Rise Set
Actual Time 7:03 AM MDT 6:52 PM MDT
Civil Twilight 6:37 AM MDT 7:18 PM MDT
Nautical Twilight 6:06 AM MDT 7:48 PM MDT
Astronomical Twilight 5:36 AM MDT 8:19 PM MDT
Moon 2:47 AM MDT (9/30) 4:20 PM MDT (9/30)
Length of Visible Light 12h 41m
Length of Day
11h 49m
Waning Crescent, 18% of the Moon is Illuminated
Sep 30
Waning Crescent
Oct 4
New
Oct 11
First Quarter
Oct 18
Full
Oct 26
Last Quarter

Hourly Weather History & Observations

Time (MDT) Temp. Windchill Dew Point Humidity Pressure Visibility Wind Dir Wind Speed Gust Speed Precip Events Conditions
12:15 AM 41.7 °F - 30.2 °F 64% 30.27 in 10.0 mi Calm Calm - N/A   Clear
12:35 AM 41.7 °F - 30.0 °F 63% 30.28 in 10.0 mi Calm Calm - N/A   Clear
12:55 AM 40.6 °F - 29.5 °F 64% 30.27 in 10.0 mi Calm Calm - N/A   Clear
1:15 AM 40.1 °F 38.0 °F 29.8 °F 67% 30.27 in 10.0 mi WNW 3.5 mph - N/A   Clear
1:35 AM 37.6 °F 34.0 °F 30.6 °F 76% 30.27 in 10.0 mi East 4.6 mph - N/A   Clear
1:55 AM 39.0 °F - 30.0 °F 70% 30.27 in 10.0 mi Calm Calm - N/A   Clear
2:15 AM 38.1 °F - 29.1 °F 70% 30.27 in 10.0 mi Calm Calm - N/A   Clear
2:35 AM 39.2 °F - 29.1 °F 67% 30.26 in 10.0 mi Calm Calm - N/A   Clear
2:55 AM 37.0 °F - 28.9 °F 73% 30.26 in 10.0 mi Calm Calm - N/A   Clear
3:15 AM 36.9 °F - 29.8 °F 76% 30.26 in 10.0 mi Calm Calm - N/A   Clear
3:35 AM 36.5 °F - 28.9 °F 74% 30.25 in 10.0 mi Calm Calm - N/A   Clear
3:55 AM 37.9 °F - 28.9 °F 70% 30.25 in 10.0 mi Calm Calm - N/A   Clear
4:15 AM 38.7 °F - 28.8 °F 68% 30.25 in 10.0 mi Calm Calm - N/A   Clear
4:35 AM 37.0 °F - 29.7 °F 75% 30.26 in 10.0 mi Calm Calm - N/A   Clear
4:55 AM 35.8 °F 33.0 °F 28.8 °F 76% 30.24 in 10.0 mi North 3.5 mph - N/A   Clear
5:15 AM 36.5 °F - 28.2 °F 72% 30.24 in 10.0 mi Calm Calm - N/A   Clear
5:35 AM 37.4 °F - 27.5 °F 67% 30.24 in 10.0 mi Calm Calm - N/A   Clear
5:55 AM 36.5 °F - 29.1 °F 75% 30.24 in 10.0 mi Calm Calm - N/A Thunderstorm Thunderstorm
6:15 AM 35.4 °F - 29.7 °F 80% 30.24 in 10.0 mi Calm Calm - N/A   Clear
6:35 AM 34.3 °F - 29.3 °F 82% 30.24 in 10.0 mi Calm Calm - N/A   Clear
6:55 AM 35.8 °F - 28.2 °F 74% 30.24 in 10.0 mi Calm Calm - N/A   Clear
7:15 AM 36.0 °F - 28.0 °F 73% 30.24 in 10.0 mi Calm Calm - N/A   Clear
7:35 AM 35.8 °F - 28.6 °F 75% 30.25 in 10.0 mi Calm Calm - N/A   Clear
7:55 AM 37.0 °F - 28.2 °F 70% 30.25 in 10.0 mi Calm Calm - N/A   Clear
8:15 AM 37.9 °F - 29.7 °F 72% 30.25 in 10.0 mi Calm Calm - N/A   Clear
8:35 AM 43.2 °F - 27.1 °F 53% 30.24 in 10.0 mi Calm Calm - N/A   Clear
8:55 AM 45.5 °F - 26.6 °F 48% 30.24 in 10.0 mi Calm Calm - N/A   Clear
9:15 AM 47.8 °F - 26.8 °F 44% 30.25 in 10.0 mi Calm Calm - N/A   Clear
9:35 AM 50.0 °F - 24.3 °F 37% 30.25 in 10.0 mi Calm Calm - N/A   Clear
9:55 AM 51.6 °F - 23.2 °F 33% 30.24 in 10.0 mi Calm Calm - N/A   Clear
10:15 AM 54.1 °F - 26.4 °F 34% 30.24 in 10.0 mi Calm Calm - N/A   Clear
10:35 AM 55.8 °F - 25.9 °F 32% 30.24 in 10.0 mi Calm Calm - N/A   Clear
10:55 AM 57.6 °F - 22.1 °F 25% 30.24 in 10.0 mi Calm Calm - N/A   Clear
11:15 AM 58.5 °F - 21.7 °F 24% 30.24 in 10.0 mi SSW 3.5 mph - N/A   Clear
11:35 AM 59.9 °F - 24.3 °F 26% 30.23 in 10.0 mi SW 4.6 mph - N/A   Clear
11:55 AM 60.8 °F - 23.5 °F 24% 30.23 in 10.0 mi Calm Calm - N/A   Clear
12:15 PM 62.1 °F - 24.3 °F 24% 30.23 in 10.0 mi SSW 5.8 mph - N/A   Clear
12:35 PM 63.1 °F - 19.6 °F 19% 30.22 in 10.0 mi WSW 9.2 mph - N/A   Clear
12:55 PM 63.5 °F - 19.9 °F 19% 30.22 in 10.0 mi South 6.9 mph - N/A   Clear
1:15 PM 64.0 °F - 21.4 °F 20% 30.21 in 10.0 mi South 5.8 mph - N/A   Clear
1:35 PM 64.9 °F - 22.5 °F 20% 30.20 in 10.0 mi SSE 5.8 mph - N/A   Clear
1:55 PM 65.7 °F - 24.6 °F 21% 30.19 in 10.0 mi West 4.6 mph - N/A   Clear
2:15 PM 65.5 °F - 23.5 °F 20% 30.18 in 10.0 mi Calm Calm - N/A   Clear
2:35 PM 67.1 °F - 21.7 °F 18% 30.18 in 10.0 mi SSW 5.8 mph - N/A   Clear
2:55 PM 67.3 °F - 22.8 °F 19% 30.17 in 10.0 mi SW 6.9 mph - N/A   Clear
3:15 PM 67.5 °F - 23.4 °F 19% 30.17 in 10.0 mi WSW 5.8 mph - N/A   Clear
3:35 PM 68.2 °F - 23.2 °F 18% 30.16 in 10.0 mi SW 6.9 mph - N/A   Clear
3:55 PM 68.4 °F - 23.7 °F 19% 30.16 in 10.0 mi WSW 8.1 mph - N/A   Clear
4:15 PM 68.9 °F - 24.4 °F 19% 30.16 in 10.0 mi WSW 9.2 mph - N/A   Clear
4:35 PM 69.1 °F - 24.8 °F 19% 30.15 in 10.0 mi SW 5.8 mph - N/A   Clear
4:55 PM 69.1 °F - 25.7 °F 20% 30.15 in 10.0 mi SW 10.4 mph - N/A   Clear
5:15 PM 68.5 °F - 25.0 °F 19% 30.15 in 10.0 mi SW 8.1 mph - N/A   Clear
5:35 PM 68.9 °F - 24.6 °F 19% 30.15 in 10.0 mi SW 5.8 mph - N/A   Clear
5:55 PM 68.4 °F - 24.8 °F 19% 30.15 in 10.0 mi SW 9.2 mph - N/A   Clear
6:15 PM 67.6 °F - 24.3 °F 19% 30.15 in 10.0 mi SW 6.9 mph - N/A   Clear
6:35 PM 66.6 °F - 24.1 °F 20% 30.16 in 10.0 mi SW 6.9 mph - N/A   Clear
6:55 PM 60.8 °F - 29.8 °F 31% 30.16 in 10.0 mi West 3.5 mph - N/A   Clear
7:15 PM 57.7 °F - 32.2 °F 38% 30.16 in 10.0 mi Calm Calm - N/A   Clear
7:35 PM 55.4 °F - 35.4 °F 47% 30.16 in 10.0 mi Calm Calm - N/A   Clear
7:55 PM 54.1 °F - 33.6 °F 46% 30.16 in 10.0 mi NNE 3.5 mph - N/A   Clear
8:15 PM 54.7 °F - 32.5 °F 43% 30.17 in 10.0 mi NE 3.5 mph - N/A   Clear
8:35 PM 54.7 °F - 31.1 °F 41% 30.17 in 10.0 mi Calm Calm - N/A   Clear
8:55 PM 50.4 °F - 33.3 °F 52% 30.18 in 10.0 mi Calm Calm - N/A   Clear
9:15 PM 50.5 °F - 32.7 °F 51% 30.19 in 10.0 mi NE 3.5 mph - N/A   Clear
9:35 PM 48.4 °F - 34.0 °F 58% 30.19 in 10.0 mi NE 5.8 mph - N/A   Clear
9:55 PM 48.2 °F - 32.7 °F 55% 30.19 in 10.0 mi NE 3.5 mph - N/A   Clear
10:15 PM 48.6 °F - 32.0 °F 53% 30.19 in 10.0 mi Calm Calm - N/A   Clear
10:35 PM 47.5 °F - 32.2 °F 55% 30.19 in 10.0 mi NNE 3.5 mph - N/A   Clear
10:55 PM 47.1 °F - 32.2 °F 56% 30.19 in 10.0 mi Calm Calm - N/A   Clear
11:15 PM 43.9 °F - 33.3 °F 66% 30.19 in 10.0 mi Calm Calm - N/A   Clear
11:35 PM 44.2 °F - 33.4 °F 66% 30.19 in 10.0 mi Calm Calm - N/A   Clear
11:55 PM 44.2 °F - 33.1 °F 65% 30.19 in 10.0 mi Calm Calm - N/A   Clear